Time;durP1;ratioP1;P1;durP2;ratioP2;P2;SDS_P1;SDS_P2;PMS_P1;PMS_P2;Temp;Humidity;BMP_temperature;BMP_pressure;BME280_temperature;BME280_humidity;BME280_pressure;Samples;Min_cycle;Max_cycle;Signal;HPM_P1;HPM_P2
2022/10/06 00:02:06;;;;;;;12.03;2.73;;;17.40;63.70;;;;;;6246155;23;20196;-92
2022/10/06 00:04:38;;;;;;;8.97;2.43;;;17.30;63.40;;;;;;6248387;23;20175;-93
2022/10/06 00:07:31;;;;;;;18.57;3.70;;;17.30;63.40;;;;;;6224041;23;20215;-93
2022/10/06 00:10:08;;;;;;;19.33;5.30;;;17.30;63.50;;;;;;6244830;22;20230;-95
2022/10/06 00:13:07;;;;;;;19.90;4.60;;;17.30;63.80;;;;;;6258865;23;20186;-94
2022/10/06 00:15:38;;;;;;;10.23;2.53;;;17.30;63.60;;;;;;6248769;23;20672;-94
2022/10/06 00:18:12;;;;;;;10.27;2.53;;;17.20;63.70;;;;;;6248684;23;20197;-94
2022/10/06 00:20:47;;;;;;;15.37;3.80;;;17.20;63.80;;;;;;6250017;23;20755;-92
2022/10/06 00:23:18;;;;;;;8.10;2.50;;;17.20;63.80;;;;;;6254193;23;20203;-95
2022/10/06 00:25:47;;;;;;;7.60;2.67;;;17.20;64.00;;;;;;6249217;23;20169;-92
2022/10/06 00:28:16;;;;;;;14.20;3.83;;;17.10;63.70;;;;;;6245533;23;20193;-95
2022/10/06 00:30:46;;;;;;;12.97;3.00;;;17.20;64.00;;;;;;6263272;23;20204;-93
2022/10/06 00:33:15;;;;;;;19.17;4.47;;;17.10;64.00;;;;;;6249539;23;20196;-93
2022/10/06 00:35:43;;;;;;;13.73;3.50;;;17.10;64.20;;;;;;6253287;23;20179;-92
2022/10/06 00:38:12;;;;;;;16.80;3.60;;;17.10;64.20;;;;;;6244635;23;20185;-93
2022/10/06 00:40:52;;;;;;;13.57;2.60;;;17.00;64.20;;;;;;6248449;23;20175;-93
2022/10/06 00:43:56;;;;;;;11.73;3.07;;;17.10;64.40;;;;;;6247323;23;20182;-91
2022/10/06 00:46:55;;;;;;;19.30;5.27;;;17.00;64.20;;;;;;6247752;23;20194;-90
2022/10/06 00:49:27;;;;;;;13.37;3.43;;;17.00;64.30;;;;;;6230716;23;20212;-94
2022/10/06 00:52:03;;;;;;;18.03;4.07;;;17.00;64.50;;;;;;6245520;23;20183;-89
2022/10/06 00:54:33;;;;;;;17.53;3.80;;;17.00;64.60;;;;;;6245065;23;20164;-91
2022/10/06 00:57:10;;;;;;;18.73;4.03;;;17.00;64.50;;;;;;6254752;23;20560;-91
2022/10/06 00:59:38;;;;;;;15.70;4.30;;;16.90;64.30;;;;;;6245476;23;20166;-91
2022/10/06 01:05:05;;;;;;;22.03;5.60;;;16.90;64.70;;;;;;6247816;23;20283;-92
2022/10/06 01:07:44;;;;;;;15.20;3.17;;;16.80;64.60;;;;;;6263825;22;20279;-90
2022/10/06 01:10:14;;;;;;;16.37;4.03;;;16.90;64.50;;;;;;6265989;23;20199;-90
2022/10/06 01:12:50;;;;;;;16.03;2.93;;;16.90;64.70;;;;;;6270291;23;20228;-92
2022/10/06 01:15:53;;;;;;;12.63;3.00;;;16.80;64.50;;;;;;6265866;22;20232;-92
2022/10/06 01:18:25;;;;;;;12.33;3.23;;;16.80;64.60;;;;;;6267592;23;20155;-92
2022/10/06 01:23:49;;;;;;;19.00;5.10;;;16.80;64.70;;;;;;6242361;23;20189;-92
2022/10/06 01:26:33;;;;;;;10.70;3.27;;;16.80;64.80;;;;;;6258250;23;20170;-92
2022/10/06 01:29:03;;;;;;;14.40;3.13;;;16.70;64.80;;;;;;6267071;23;20249;-91
2022/10/06 01:31:31;;;;;;;11.80;2.50;;;16.70;65.00;;;;;;6265578;23;20228;-92
2022/10/06 01:34:05;;;;;;;15.53;4.13;;;16.70;65.00;;;;;;6266875;23;20177;-92
2022/10/06 01:36:48;;;;;;;20.47;5.43;;;16.70;65.00;;;;;;6262732;23;20230;-93
2022/10/06 01:39:21;;;;;;;12.10;3.37;;;16.70;65.00;;;;;;6255137;23;20258;-92
2022/10/06 01:41:48;;;;;;;16.73;4.27;;;16.60;64.90;;;;;;6265904;23;20201;-92
2022/10/06 01:44:50;;;;;;;15.13;4.60;;;16.60;65.00;;;;;;6219408;23;20188;-91
2022/10/06 01:47:17;;;;;;;17.70;4.23;;;16.50;64.90;;;;;;6181455;23;20186;-92
2022/10/06 01:49:47;;;;;;;16.33;3.80;;;16.40;64.80;;;;;;6241223;23;20234;-91
2022/10/06 01:52:29;;;;;;;18.23;4.10;;;16.40;65.10;;;;;;6244054;23;20176;-92
2022/10/06 01:55:23;;;;;;;13.73;3.57;;;16.40;65.30;;;;;;6245121;23;20168;-92
2022/10/06 01:57:53;;;;;;;16.93;3.97;;;16.30;65.10;;;;;;6238127;23;20176;-90
2022/10/06 02:00:22;;;;;;;14.13;3.53;;;16.30;65.20;;;;;;6241931;23;20180;-92
2022/10/06 02:02:53;;;;;;;12.23;3.83;;;16.20;65.20;;;;;;6245740;23;20615;-91
2022/10/06 02:05:24;;;;;;;9.67;2.97;;;16.20;65.40;;;;;;6244908;23;20258;-91
2022/10/06 02:08:04;;;;;;;16.77;4.53;;;16.10;65.40;;;;;;6245439;23;20175;-92
2022/10/06 02:10:50;;;;;;;15.37;3.87;;;16.10;65.70;;;;;;6219574;23;20198;-91
2022/10/06 02:13:20;;;;;;;19.83;3.17;;;16.00;65.50;;;;;;6246221;23;20169;-92
2022/10/06 02:15:47;;;;;;;18.10;4.43;;;16.00;65.60;;;;;;6244446;23;20681;-93
2022/10/06 02:18:15;;;;;;;18.20;4.57;;;16.00;65.70;;;;;;6245952;23;20172;-91
2022/10/06 02:20:43;;;;;;;18.20;4.47;;;15.90;65.70;;;;;;6245187;23;20808;-93
2022/10/06 02:23:10;;;;;;;15.70;3.97;;;15.90;65.90;;;;;;6254810;23;20174;-91
2022/10/06 02:25:37;;;;;;;27.63;7.13;;;15.80;65.90;;;;;;6266727;22;20174;-92
2022/10/06 02:28:06;;;;;;;17.60;4.73;;;15.80;66.10;;;;;;6267659;22;20206;-91
2022/10/06 02:30:35;;;;;;;12.57;3.27;;;15.70;66.10;;;;;;6258216;23;20168;-92
2022/10/06 02:33:02;;;;;;;18.23;5.17;;;15.70;66.10;;;;;;6252437;23;20174;-93
2022/10/06 02:35:45;;;;;;;14.20;3.20;;;15.70;66.20;;;;;;6249968;23;20207;-92
2022/10/06 02:38:14;;;;;;;11.87;2.73;;;15.60;66.40;;;;;;6249887;23;20178;-93
2022/10/06 02:40:47;;;;;;;14.57;3.63;;;15.60;66.20;;;;;;6246374;23;20199;-91
2022/10/06 02:43:16;;;;;;;14.33;3.97;;;15.60;66.40;;;;;;6245666;23;20172;-92
2022/10/06 02:45:45;;;;;;;13.83;3.97;;;15.60;66.40;;;;;;6246907;23;20202;-92
2022/10/06 02:48:12;;;;;;;16.50;4.40;;;15.50;66.40;;;;;;6244786;23;20200;-91
2022/10/06 02:50:58;;;;;;;15.37;3.57;;;15.50;66.40;;;;;;6247740;23;20665;-93
2022/10/06 02:53:26;;;;;;;20.77;4.60;;;15.40;66.40;;;;;;6247084;23;20169;-91
2022/10/06 02:56:00;;;;;;;12.37;3.23;;;15.40;66.50;;;;;;6247120;23;20222;-91
2022/10/06 02:58:38;;;;;;;11.67;2.93;;;15.40;66.50;;;;;;6245407;23;20191;-93
2022/10/06 03:01:11;;;;;;;17.87;4.63;;;15.30;66.50;;;;;;6246436;23;20198;-92
2022/10/06 03:03:40;;;;;;;14.47;3.20;;;15.30;66.80;;;;;;6245969;23;20170;-91
2022/10/06 03:06:36;;;;;;;14.37;3.87;;;15.20;66.90;;;;;;6244601;23;20192;-93
2022/10/06 03:09:09;;;;;;;13.37;3.00;;;15.20;66.90;;;;;;6246635;23;20197;-92
2022/10/06 03:11:38;;;;;;;13.67;3.17;;;15.20;66.90;;;;;;6244501;23;20194;-92
2022/10/06 03:14:21;;;;;;;13.33;3.43;;;15.10;66.90;;;;;;6245106;23;20163;-91
2022/10/06 03:17:08;;;;;;;14.57;3.83;;;15.10;67.00;;;;;;6245390;23;20815;-92
2022/10/06 03:19:43;;;;;;;14.97;3.60;;;15.00;67.10;;;;;;6219743;23;20167;-91
2022/10/06 03:24:54;;;;;;;13.03;3.47;;;15.00;67.10;;;;;;6243523;23;20221;-92
2022/10/06 03:27:22;;;;;;;17.07;3.93;;;15.00;67.30;;;;;;6244344;23;20485;-91
2022/10/06 03:29:58;;;;;;;11.20;3.27;;;14.90;67.30;;;;;;6244495;23;20227;-92
2022/10/06 03:32:37;;;;;;;12.03;3.27;;;14.90;67.80;;;;;;6243983;23;20170;-92
2022/10/06 03:35:08;;;;;;;11.70;3.60;;;14.90;67.80;;;;;;6244656;23;20175;-92
2022/10/06 03:37:44;;;;;;;14.97;3.30;;;14.80;67.60;;;;;;6243049;23;20215;-91
2022/10/06 03:43:01;;;;;;;19.80;5.23;;;14.70;67.80;;;;;;6222792;23;20210;-91
2022/10/06 03:45:30;;;;;;;16.87;4.57;;;14.70;67.70;;;;;;6245354;23;20212;-91
2022/10/06 03:47:58;;;;;;;11.67;3.33;;;14.70;67.80;;;;;;6243337;23;20170;-90
2022/10/06 03:50:25;;;;;;;14.80;3.97;;;14.70;67.90;;;;;;6244392;23;20201;-91
2022/10/06 03:52:54;;;;;;;15.50;3.50;;;14.70;67.90;;;;;;6243731;23;20611;-92
2022/10/06 03:55:22;;;;;;;14.60;3.97;;;14.60;67.90;;;;;;6242913;23;20305;-91
2022/10/06 03:57:51;;;;;;;10.60;2.97;;;14.60;68.00;;;;;;6241804;23;20188;-90
2022/10/06 04:00:19;;;;;;;14.50;4.47;;;14.60;68.20;;;;;;6243482;23;20166;-91
2022/10/06 04:02:50;;;;;;;12.40;3.50;;;14.60;68.40;;;;;;6244113;23;20278;-91
2022/10/06 04:05:26;;;;;;;14.80;3.60;;;14.50;68.30;;;;;;6217459;23;20193;-89
2022/10/06 04:07:53;;;;;;;18.60;4.60;;;14.50;68.30;;;;;;6247454;23;20177;-91
2022/10/06 04:10:22;;;;;;;15.60;3.50;;;14.50;68.30;;;;;;6248841;23;20223;-91
2022/10/06 04:12:52;;;;;;;16.40;3.87;;;14.40;68.20;;;;;;6249583;23;20162;-91
2022/10/06 04:15:20;;;;;;;17.97;4.50;;;14.40;68.40;;;;;;6244665;23;20174;-91
2022/10/06 04:17:55;;;;;;;16.00;3.20;;;14.40;68.50;;;;;;6246983;23;20191;-90
2022/10/06 04:20:23;;;;;;;15.83;4.13;;;14.40;68.80;;;;;;6244996;23;20618;-91
2022/10/06 04:22:51;;;;;;;15.37;3.73;;;14.40;68.60;;;;;;6247721;23;20702;-91
2022/10/06 04:25:19;;;;;;;17.77;4.63;;;14.30;68.70;;;;;;6245341;23;20168;-92
2022/10/06 04:27:46;;;;;;;9.93;2.93;;;14.30;68.80;;;;;;6247086;23;20207;-90
2022/10/06 04:30:55;;;;;;;11.23;2.97;;;14.30;68.80;;;;;;6254362;23;20215;-91
2022/10/06 04:33:24;;;;;;;16.37;4.23;;;14.30;69.30;;;;;;6243251;23;20176;-91
2022/10/06 04:36:01;;;;;;;10.10;2.50;;;14.20;68.90;;;;;;6266750;23;20173;-91
2022/10/06 04:38:34;;;;;;;16.70;4.63;;;14.20;69.10;;;;;;6264209;22;20159;-91
2022/10/06 04:41:08;;;;;;;12.70;3.50;;;14.10;69.00;;;;;;6271041;22;20165;-92
2022/10/06 04:43:45;;;;;;;7.97;2.37;;;14.10;69.10;;;;;;6268173;22;20190;-91
2022/10/06 04:46:16;;;;;;;13.17;3.23;;;14.10;69.30;;;;;;6267203;22;20163;-90
2022/10/06 04:49:17;;;;;;;14.23;2.80;;;14.10;69.50;;;;;;6270714;22;20165;-91
2022/10/06 04:51:47;;;;;;;9.43;2.53;;;14.00;69.80;;;;;;6242623;23;20165;-93
2022/10/06 04:54:17;;;;;;;9.87;2.93;;;14.00;69.60;;;;;;6271932;22;20193;-94
2022/10/06 04:56:45;;;;;;;21.40;4.77;;;14.00;69.70;;;;;;6265231;23;20187;-93
2022/10/06 04:59:12;;;;;;;15.37;3.73;;;13.90;69.60;;;;;;6259296;23;20254;-92
2022/10/06 05:04:44;;;;;;;21.43;5.17;;;13.90;70.20;;;;;;6240280;22;20261;-91
2022/10/06 05:07:14;;;;;;;40.47;9.27;;;13.90;70.40;;;;;;6261199;23;20178;-92
2022/10/06 05:10:08;;;;;;;21.07;5.07;;;13.90;70.20;;;;;;6260434;22;20215;-91
2022/10/06 05:12:38;;;;;;;11.57;3.03;;;13.90;70.40;;;;;;6260858;23;20157;-91
2022/10/06 05:15:09;;;;;;;13.27;3.60;;;13.80;70.30;;;;;;6270593;23;20248;-92
2022/10/06 05:18:04;;;;;;;7.70;2.47;;;13.90;70.40;;;;;;6244812;23;20175;-91
2022/10/06 05:20:39;;;;;;;10.07;2.83;;;13.80;70.40;;;;;;6262968;23;20177;-92
2022/10/06 05:23:07;;;;;;;16.77;4.30;;;13.90;70.40;;;;;;6221072;23;20174;-92
2022/10/06 05:25:34;;;;;;;16.63;3.63;;;13.80;70.30;;;;;;6251487;23;20204;-93
2022/10/06 05:28:03;;;;;;;14.90;3.87;;;13.80;70.30;;;;;;6248578;23;20178;-92
2022/10/06 05:30:32;;;;;;;21.77;5.57;;;13.80;70.30;;;;;;6245333;23;20485;-91
2022/10/06 05:33:07;;;;;;;17.90;3.93;;;13.80;70.30;;;;;;6245853;23;20182;-91
2022/10/06 05:35:50;;;;;;;22.50;5.70;;;13.80;70.30;;;;;;6244774;23;20668;-91
2022/10/06 05:38:22;;;;;;;15.60;3.77;;;13.70;70.70;;;;;;6244975;23;20167;-91
2022/10/06 05:40:51;;;;;;;16.63;3.60;;;13.70;70.80;;;;;;6245967;23;20182;-92
2022/10/06 05:43:24;;;;;;;15.53;4.07;;;13.70;70.70;;;;;;6245251;23;20604;-91
2022/10/06 05:46:16;;;;;;;29.07;5.60;;;13.70;70.80;;;;;;6248206;23;20172;-92
2022/10/06 05:48:44;;;;;;;14.30;3.77;;;13.70;71.40;;;;;;6251594;23;20671;-92
2022/10/06 05:51:16;;;;;;;20.40;5.03;;;13.60;70.80;;;;;;6251245;23;20186;-92
2022/10/06 05:53:48;;;;;;;16.57;4.90;;;13.60;71.00;;;;;;6248977;23;20175;-93
2022/10/06 05:56:17;;;;;;;15.10;4.03;;;13.60;71.00;;;;;;6250269;23;20166;-92
2022/10/06 05:58:46;;;;;;;14.47;4.03;;;13.60;71.10;;;;;;6243900;23;20177;-92
2022/10/06 06:01:18;;;;;;;16.17;4.60;;;13.60;71.20;;;;;;6244792;23;20648;-90
2022/10/06 06:03:49;;;;;;;12.10;3.67;;;13.50;71.40;;;;;;6243117;23;20219;-90
2022/10/06 06:06:25;;;;;;;22.07;5.70;;;13.50;72.30;;;;;;6241393;23;20638;-89
2022/10/06 06:08:54;;;;;;;18.03;4.23;;;13.50;71.90;;;;;;6240630;23;20174;-88
2022/10/06 06:11:25;;;;;;;22.93;4.83;;;13.50;71.80;;;;;;6243268;23;20707;-90
2022/10/06 06:13:58;;;;;;;13.63;3.77;;;13.50;71.90;;;;;;6245680;23;20172;-91
2022/10/06 06:16:56;;;;;;;21.60;6.07;;;13.50;72.20;;;;;;6242200;23;20172;-90
2022/10/06 06:19:27;;;;;;;26.80;6.87;;;13.40;72.60;;;;;;6242076;23;20767;-90
2022/10/06 06:22:08;;;;;;;15.57;4.53;;;13.40;72.30;;;;;;6242734;23;20490;-89
2022/10/06 06:24:36;;;;;;;22.07;4.23;;;13.40;72.50;;;;;;6241983;23;20176;-90
2022/10/06 06:27:05;;;;;;;21.93;5.77;;;13.30;72.30;;;;;;6241257;23;20550;-89
2022/10/06 06:29:33;;;;;;;28.23;7.23;;;13.30;72.40;;;;;;6210267;23;20211;-90
2022/10/06 06:32:04;;;;;;;15.00;3.80;;;13.30;72.50;;;;;;6222140;23;20192;-90
2022/10/06 06:34:34;;;;;;;12.33;3.30;;;13.30;72.50;;;;;;6249825;23;20183;-90
2022/10/06 06:37:06;;;;;;;16.77;5.03;;;13.30;72.50;;;;;;6247410;23;20185;-90
2022/10/06 06:42:44;;;;;;;17.47;4.67;;;13.30;73.00;;;;;;6247766;23;20201;-90
2022/10/06 06:45:13;;;;;;;25.77;6.13;;;13.20;72.80;;;;;;6234791;23;20186;-92
2022/10/06 06:47:43;;;;;;;11.43;3.30;;;13.30;73.10;;;;;;6247866;23;20164;-90
2022/10/06 06:50:12;;;;;;;21.17;4.67;;;13.30;73.50;;;;;;6250148;23;20201;-89
2022/10/06 06:55:53;;;;;;;18.13;4.27;;;13.30;74.10;;;;;;6261173;22;20220;-90
2022/10/06 06:58:23;;;;;;;10.67;3.10;;;13.30;74.10;;;;;;6256914;23;20532;-91
2022/10/06 07:00:50;;;;;;;21.17;4.30;;;13.30;74.80;;;;;;6250636;23;20277;-91
2022/10/06 07:03:23;;;;;;;18.80;4.27;;;13.30;73.90;;;;;;6248865;23;20548;-90
2022/10/06 07:05:50;;;;;;;11.47;3.20;;;13.30;74.10;;;;;;6246545;22;20222;-90
2022/10/06 07:08:19;;;;;;;14.07;3.97;;;13.30;73.80;;;;;;6247674;23;20825;-90
2022/10/06 07:10:57;;;;;;;15.87;4.40;;;13.30;74.10;;;;;;6247651;23;20288;-90
2022/10/06 07:13:27;;;;;;;15.63;4.10;;;13.40;74.10;;;;;;6247019;23;20164;-90
2022/10/06 07:27:13;;;;;;;20.03;4.53;;;13.50;75.00;;;;;;6253520;23;20616;-92
2022/10/06 07:29:43;;;;;;;14.70;3.93;;;13.60;74.80;;;;;;6244638;23;20204;-90
2022/10/06 07:32:13;;;;;;;22.13;4.93;;;13.60;74.80;;;;;;6243223;23;20174;-90
2022/10/06 07:34:40;;;;;;;20.27;4.00;;;13.60;74.80;;;;;;6245787;23;20176;-91
2022/10/06 07:37:07;;;;;;;16.53;3.77;;;13.60;74.90;;;;;;6242502;23;20165;-90
2022/10/06 07:39:35;;;;;;;15.93;3.93;;;13.70;75.00;;;;;;6245348;23;20165;-90
2022/10/06 07:42:06;;;;;;;17.03;4.43;;;13.70;75.30;;;;;;6242029;23;20178;-90
2022/10/06 07:47:22;;;;;;;26.60;4.23;;;13.90;76.20;;;;;;6240415;22;20214;-91
2022/10/06 07:49:54;;;;;;;15.87;3.87;;;13.90;75.60;;;;;;6240024;23;20230;-91
2022/10/06 07:52:21;;;;;;;18.57;4.77;;;13.90;75.80;;;;;;6241938;23;20185;-91
2022/10/06 07:55:22;;;;;;;12.40;3.13;;;14.00;75.80;;;;;;6245001;23;20178;-91
2022/10/06 07:57:51;;;;;;;11.33;3.33;;;14.10;76.20;;;;;;6246051;23;20618;-90
2022/10/06 08:00:21;;;;;;;16.83;3.97;;;14.10;76.00;;;;;;6242139;23;20201;-91
2022/10/06 08:02:50;;;;;;;15.43;4.00;;;14.20;76.30;;;;;;6249206;23;20164;-92
2022/10/06 08:05:17;;;;;;;10.37;2.73;;;14.30;76.30;;;;;;6244876;23;20670;-93
2022/10/06 08:07:48;;;;;;;14.63;4.13;;;14.40;76.40;;;;;;6243715;23;20199;-92
2022/10/06 08:10:17;;;;;;;18.00;4.40;;;14.50;76.50;;;;;;6255142;23;20269;-91
2022/10/06 08:12:44;;;;;;;16.83;3.60;;;14.60;76.60;;;;;;6254351;23;20177;-92
2022/10/06 08:15:17;;;;;;;21.03;4.43;;;14.70;76.70;;;;;;6263204;23;20158;-91
2022/10/06 08:18:09;;;;;;;11.10;3.33;;;14.90;76.80;;;;;;6263704;23;20190;-91
2022/10/06 08:20:38;;;;;;;10.23;2.67;;;14.90;76.70;;;;;;6264804;23;20171;-90
2022/10/06 08:23:11;;;;;;;17.03;3.53;;;15.10;76.10;;;;;;6269184;23;20173;-92
2022/10/06 08:25:42;;;;;;;13.30;2.87;;;15.20;76.70;;;;;;6267470;23;20175;-91
2022/10/06 08:31:10;;;;;;;11.73;3.23;;;15.40;75.80;;;;;;6240844;22;20211;-93
2022/10/06 08:34:35;;;;;;;11.47;3.10;;;15.60;75.50;;;;;;6264582;23;20169;-92
2022/10/06 08:37:03;;;;;;;11.60;3.40;;;15.70;76.00;;;;;;6252847;23;20188;-90
2022/10/06 08:39:32;;;;;;;16.60;4.50;;;15.90;76.00;;;;;;6265785;23;20216;-91
2022/10/06 08:42:05;;;;;;;15.67;3.33;;;16.00;75.80;;;;;;6262498;23;20181;-91
2022/10/06 08:44:40;;;;;;;13.43;3.27;;;16.20;76.50;;;;;;6258385;23;20169;-91
2022/10/06 08:47:17;;;;;;;9.67;2.73;;;16.40;76.30;;;;;;6256797;23;20171;-91
2022/10/06 08:50:03;;;;;;;18.90;3.60;;;16.70;76.40;;;;;;6270579;23;20166;-91
2022/10/06 08:52:49;;;;;;;14.60;3.67;;;16.90;75.80;;;;;;6271606;23;20177;-91
2022/10/06 08:55:36;;;;;;;15.73;4.60;;;17.20;75.00;;;;;;6271597;22;20174;-92
2022/10/06 08:58:43;;;;;;;17.40;4.93;;;17.60;75.60;;;;;;6252763;23;20169;-91
2022/10/06 09:01:17;;;;;;;9.17;3.13;;;17.90;74.50;;;;;;6244639;23;20198;-93
2022/10/06 09:03:48;;;;;;;11.47;2.80;;;18.30;74.10;;;;;;6248125;23;20171;-91
2022/10/06 09:06:32;;;;;;;12.63;3.33;;;18.50;72.60;;;;;;6243518;23;20254;-92
2022/10/06 09:09:06;;;;;;;13.43;3.80;;;18.80;71.10;;;;;;6243285;23;20214;-93
2022/10/06 09:11:45;;;;;;;9.77;3.13;;;19.10;71.00;;;;;;6246535;23;20210;-93
2022/10/06 09:14:23;;;;;;;10.90;3.50;;;19.40;70.50;;;;;;6256055;22;20223;-92
2022/10/06 09:16:56;;;;;;;9.53;2.83;;;19.60;69.20;;;;;;6218786;23;20168;-90
2022/10/06 09:19:59;;;;;;;11.80;3.67;;;19.90;68.60;;;;;;6248000;23;20171;-91
2022/10/06 09:22:32;;;;;;;10.00;2.53;;;20.20;68.00;;;;;;6253782;22;20171;-92
2022/10/06 09:25:11;;;;;;;10.77;2.37;;;20.40;67.60;;;;;;6243004;23;20174;-92
2022/10/06 09:30:24;;;;;;;9.40;2.50;;;20.80;67.40;;;;;;6235711;23;20213;-90
2022/10/06 09:33:01;;;;;;;10.83;2.67;;;21.00;66.20;;;;;;6241913;23;20165;-93
2022/10/06 09:35:30;;;;;;;8.93;3.00;;;21.20;64.80;;;;;;6243115;23;20171;-92
2022/10/06 09:38:02;;;;;;;13.73;3.60;;;21.40;63.30;;;;;;6243877;23;20206;-92
2022/10/06 09:40:39;;;;;;;11.47;2.97;;;21.50;63.50;;;;;;6245281;23;20897;-93
2022/10/06 09:43:19;;;;;;;7.83;2.37;;;21.70;61.80;;;;;;6244502;23;20217;-91
2022/10/06 09:46:16;;;;;;;10.80;2.93;;;21.80;61.20;;;;;;6245883;23;20167;-91
2022/10/06 09:48:44;;;;;;;11.37;3.30;;;22.00;62.10;;;;;;6235240;23;20184;-92
2022/10/06 09:51:14;;;;;;;13.33;3.73;;;22.10;61.70;;;;;;6242927;23;20199;-93
2022/10/06 09:53:44;;;;;;;15.20;4.03;;;22.20;61.20;;;;;;6242479;23;20265;-92
2022/10/06 09:56:17;;;;;;;9.83;2.67;;;22.30;60.50;;;;;;6242464;23;20166;-91
2022/10/06 09:58:56;;;;;;;6.87;2.50;;;22.50;60.30;;;;;;6242872;23;20177;-92
2022/10/06 10:01:25;;;;;;;10.53;3.23;;;22.60;58.90;;;;;;6241702;23;20274;-93
2022/10/06 10:03:56;;;;;;;12.17;3.37;;;22.70;59.30;;;;;;6242240;23;20167;-90
2022/10/06 10:06:26;;;;;;;13.07;3.77;;;22.70;58.00;;;;;;6241310;23;20561;-90
2022/10/06 10:09:26;;;;;;;11.70;3.47;;;22.70;58.60;;;;;;6242279;23;20168;-90
2022/10/06 10:12:26;;;;;;;11.87;3.60;;;22.80;57.50;;;;;;6243804;23;20183;-91
2022/10/06 10:14:56;;;;;;;11.10;3.50;;;22.80;57.70;;;;;;6245042;23;20579;-92
2022/10/06 10:17:39;;;;;;;12.50;3.70;;;22.90;58.50;;;;;;6240744;23;20199;-91
2022/10/06 10:20:33;;;;;;;9.57;2.87;;;22.90;56.60;;;;;;6244279;23;20550;-93
2022/10/06 10:23:04;;;;;;;11.07;3.73;;;23.00;56.10;;;;;;6244049;23;20174;-92
2022/10/06 10:25:53;;;;;;;11.60;3.07;;;23.00;57.00;;;;;;6246675;23;20176;-91
2022/10/06 10:28:49;;;;;;;12.30;3.77;;;23.10;55.90;;;;;;6248835;23;20192;-92
2022/10/06 10:31:24;;;;;;;8.63;2.93;;;23.10;55.90;;;;;;6251551;23;20199;-91
2022/10/06 10:37:29;;;;;;;8.23;2.70;;;23.30;56.00;;;;;;6073998;23;20182;-93
2022/10/06 10:40:15;;;;;;;9.60;2.63;;;23.40;57.00;;;;;;6251295;23;20202;-92
2022/10/06 10:42:48;;;;;;;8.87;2.47;;;23.40;55.70;;;;;;6252388;23;20176;-92
2022/10/06 10:45:24;;;;;;;10.40;3.10;;;23.50;56.10;;;;;;6248534;23;20176;-92
2022/10/06 10:47:53;;;;;;;8.47;2.13;;;23.50;54.60;;;;;;6247319;23;20285;-92
2022/10/06 10:50:26;;;;;;;6.83;2.57;;;23.60;55.60;;;;;;6241744;23;20163;-92
2022/10/06 10:53:02;;;;;;;7.93;3.00;;;23.70;54.50;;;;;;6245223;23;20199;-94
2022/10/06 10:55:36;;;;;;;15.07;4.20;;;23.80;54.80;;;;;;6243133;23;20199;-93
2022/10/06 10:58:19;;;;;;;13.83;5.00;;;23.80;54.70;;;;;;6241514;23;20164;-94
2022/10/06 11:00:50;;;;;;;9.77;2.90;;;23.90;53.40;;;;;;6244984;23;20202;-94
2022/10/06 11:03:20;;;;;;;6.63;2.57;;;24.00;54.20;;;;;;6243032;23;20180;-92
2022/10/06 11:06:07;;;;;;;17.13;2.90;;;24.10;53.70;;;;;;6246679;23;20698;-90
2022/10/06 11:08:46;;;;;;;6.47;2.50;;;24.10;53.10;;;;;;6247784;23;20167;-93
2022/10/06 11:11:20;;;;;;;9.27;3.27;;;24.10;53.40;;;;;;6242158;23;20195;-94
2022/10/06 11:13:53;;;;;;;8.67;2.83;;;24.10;53.40;;;;;;6244569;23;20753;-92
2022/10/06 11:19:33;;;;;;;6.87;2.50;;;24.30;52.90;;;;;;6186845;23;20486;-92
2022/10/06 11:22:22;;;;;;;9.03;2.73;;;24.30;52.60;;;;;;6246818;23;20180;-94
2022/10/06 11:25:03;;;;;;;6.63;2.53;;;24.40;52.30;;;;;;6245174;23;20180;-94
2022/10/06 11:28:01;;;;;;;6.47;2.33;;;24.40;52.90;;;;;;6244903;23;20268;-94
2022/10/06 11:31:02;;;;;;;6.10;1.73;;;24.40;52.20;;;;;;6247021;23;20221;-92
2022/10/06 11:33:40;;;;;;;9.70;2.57;;;24.50;52.80;;;;;;6241533;23;20179;-93
2022/10/06 11:36:59;;;;;;;8.20;2.50;;;24.60;52.90;;;;;;6218069;23;20168;-93
2022/10/06 11:39:37;;;;;;;5.57;2.07;;;24.70;52.20;;;;;;6197680;23;20203;-93
2022/10/06 11:42:17;;;;;;;10.97;3.23;;;24.80;52.60;;;;;;6245875;23;20202;-93
2022/10/06 11:44:51;;;;;;;8.53;2.90;;;24.80;51.90;;;;;;6247287;23;20172;-94
2022/10/06 11:47:37;;;;;;;10.67;3.73;;;24.90;51.50;;;;;;6221812;23;20167;-94
2022/10/06 11:50:32;;;;;;;7.20;3.03;;;25.00;51.30;;;;;;6245622;23;20564;-94
2022/10/06 11:53:01;;;;;;;8.53;2.60;;;25.00;51.30;;;;;;6250631;23;20172;-95
2022/10/06 11:55:29;;;;;;;10.37;2.67;;;25.10;51.80;;;;;;6251270;23;20190;-92
2022/10/06 11:58:16;;;;;;;8.83;2.97;;;25.10;50.90;;;;;;6255536;23;20178;-93
2022/10/06 12:00:50;;;;;;;5.70;1.80;;;25.20;50.00;;;;;;6264304;23;20191;-93
2022/10/06 12:07:01;;;;;;;7.63;2.53;;;25.30;50.50;;;;;;6249456;23;20263;-92
2022/10/06 12:09:46;;;;;;;13.17;5.03;;;25.40;49.80;;;;;;6262815;23;20175;-93
2022/10/06 12:15:45;;;;;;;9.00;2.13;;;25.50;49.70;;;;;;6256385;23;20183;-92
2022/10/06 12:18:29;;;;;;;8.60;2.60;;;25.50;49.90;;;;;;6260925;23;20194;-93
2022/10/06 12:21:42;;;;;;;9.63;3.23;;;25.60;50.60;;;;;;6260349;23;20202;-93
2022/10/06 12:27:33;;;;;;;9.30;2.47;;;25.80;49.40;;;;;;6264517;23;20167;-95
2022/10/06 12:30:17;;;;;;;5.23;1.67;;;25.90;48.20;;;;;;6235277;23;20222;-93
2022/10/06 12:33:50;;;;;;;6.90;2.77;;;26.00;49.00;;;;;;6247623;23;20199;-94
2022/10/06 12:36:22;;;;;;;7.17;2.90;;;26.00;47.60;;;;;;6248409;23;20179;-93
2022/10/06 12:39:29;;;;;;;6.37;2.17;;;26.00;49.00;;;;;;6244453;23;20198;-94
2022/10/06 12:42:01;;;;;;;8.27;2.53;;;26.00;48.10;;;;;;6244168;23;20241;-94
2022/10/06 12:44:33;;;;;;;6.13;2.50;;;26.00;48.60;;;;;;6242768;23;20243;-93
2022/10/06 12:47:05;;;;;;;7.53;2.43;;;26.10;48.30;;;;;;6243245;23;20252;-94
2022/10/06 12:50:18;;;;;;;5.90;2.20;;;26.10;47.70;;;;;;6243860;23;20176;-94
2022/10/06 12:52:50;;;;;;;9.33;2.70;;;26.10;46.60;;;;;;6215079;23;20226;-90
2022/10/06 12:55:38;;;;;;;9.67;2.87;;;26.10;47.50;;;;;;6240851;23;20718;-92
2022/10/06 12:58:17;;;;;;;9.73;2.87;;;26.10;46.30;;;;;;6242361;23;20163;-93
2022/10/06 13:00:50;;;;;;;7.37;2.87;;;26.10;46.60;;;;;;6243957;23;20195;-93
2022/10/06 13:03:29;;;;;;;6.43;2.23;;;26.10;46.60;;;;;;6243603;23;20633;-94
2022/10/06 13:06:19;;;;;;;14.80;3.93;;;26.10;47.00;;;;;;6242650;23;20173;-92
2022/10/06 13:12:51;;;;;;;12.27;4.50;;;26.00;46.70;;;;;;6232800;23;20278;-94
2022/10/06 13:15:28;;;;;;;4.87;1.93;;;26.00;46.70;;;;;;6241511;23;20222;-95
2022/10/06 13:17:59;;;;;;;10.10;3.37;;;26.00;47.30;;;;;;6241997;23;20501;-93
2022/10/06 13:20:37;;;;;;;10.67;3.97;;;26.00;48.10;;;;;;6240486;23;20250;-93
2022/10/06 13:23:55;;;;;;;13.57;4.87;;;26.00;47.30;;;;;;6242222;23;20523;-94
2022/10/06 13:26:38;;;;;;;9.10;3.07;;;26.10;47.60;;;;;;6242328;23;20699;-90
2022/10/06 13:29:17;;;;;;;5.60;2.27;;;26.20;46.20;;;;;;6250555;23;20171;-95
2022/10/06 13:31:48;;;;;;;10.47;3.10;;;26.30;47.20;;;;;;6244413;23;20187;-93
2022/10/06 13:34:42;;;;;;;8.47;3.27;;;26.40;46.90;;;;;;6237990;23;20175;-92
2022/10/06 13:37:14;;;;;;;9.97;3.53;;;26.40;46.30;;;;;;6241090;23;20179;-94
2022/10/06 13:39:42;;;;;;;7.67;2.97;;;26.50;45.70;;;;;;6253224;23;20172;-93
2022/10/06 13:42:20;;;;;;;8.40;2.43;;;26.50;46.10;;;;;;6252802;23;20516;-92
2022/10/06 13:45:02;;;;;;;7.37;3.07;;;26.50;44.00;;;;;;6244603;23;20841;-93
2022/10/06 13:47:33;;;;;;;8.73;2.83;;;26.40;45.60;;;;;;6243258;23;20178;-94
2022/10/06 13:50:15;;;;;;;5.33;2.17;;;26.40;45.50;;;;;;6242782;23;20175;-92
2022/10/06 13:52:47;;;;;;;7.33;2.20;;;26.30;45.60;;;;;;6189538;23;20281;-93
2022/10/06 13:55:18;;;;;;;9.93;3.77;;;26.20;45.30;;;;;;6243153;23;20167;-94
2022/10/06 13:57:48;;;;;;;7.97;2.17;;;26.10;45.30;;;;;;6244479;23;20167;-91
2022/10/06 14:03:24;;;;;;;8.60;2.77;;;25.90;45.10;;;;;;6181404;22;20238;-94
2022/10/06 14:09:24;;;;;;;12.40;4.20;;;25.70;45.80;;;;;;6229867;23;20254;-94
2022/10/06 14:12:19;;;;;;;12.63;4.03;;;25.50;45.50;;;;;;6261777;23;20187;-93
2022/10/06 14:14:52;;;;;;;12.17;3.53;;;25.40;45.30;;;;;;6243952;23;20688;-94
2022/10/06 14:17:23;;;;;;;10.47;3.40;;;25.30;46.30;;;;;;6246812;23;20721;-91
2022/10/06 14:19:58;;;;;;;10.30;2.47;;;25.10;46.20;;;;;;6259130;23;20224;-90
2022/10/06 14:22:33;;;;;;;12.43;3.93;;;25.00;46.30;;;;;;6243735;23;20178;-95
2022/10/06 14:25:39;;;;;;;9.57;3.17;;;24.90;46.40;;;;;;6251386;23;20177;-92
2022/10/06 14:28:07;;;;;;;12.67;3.97;;;24.80;46.30;;;;;;6253226;22;20198;-91
2022/10/06 14:30:45;;;;;;;5.60;1.97;;;24.70;47.00;;;;;;6249907;23;20174;-93
2022/10/06 14:33:15;;;;;;;11.67;4.23;;;24.60;46.90;;;;;;6243158;23;20214;-92